Station Historical Data
Daily Summary for February 12, 2017 Units:  Both    English   Metric
« Previous Day
Next Day »
Daily Weekly Monthly Yearly Custom
  High: Low: Average:
Temperature: 34.7 °F /  1.5 °C 30.1 °F /  -1.1 °C 32.8 °F /  0.4 °C
Dew Point: 33.1 °F /  0.6 °C 23.0 °F /  -5 °C 30 °F /  -1.1 °C
Humidity: 94% 74% 90%
Wind Speed: 18.0mph /  29km/h - 4.9mph /  7.9km/h
Wind Gust: 29.0mph /  46.7km/h - -
Wind- - South
Pressure: 30.04 in /  1017.2 hPa 29.70 in /  1005.6 hPa -
Precipitation: 0.00 in /  0 mm    
Historical Graphs
 
 
Tabular Data for February 12, 2017
Time Temperature Dew Point Pressure Wind Wind Speed Wind Gust Humidity Rainfall Rate (Hourly)
00:04 34.7 °F /  1.5 °C 29.2 °F /  -1.6 °C 30.04in /  1017.2hPa ENE 2.0mph /  3.2km/h 8.0mph /  12.9km/h 80% 0.00in /  0mm
00:09 34.7 °F /  1.5 °C 29.2 °F /  -1.6 °C 30.04in /  1017.2hPa NE 4.0mph /  6.4km/h 8.0mph /  12.9km/h 80% 0.00in /  0mm
00:14 34.6 °F /  1.4 °C 29.1 °F /  -1.6 °C 30.04in /  1017.2hPa East 5.0mph /  8km/h 9.0mph /  14.5km/h 80% 0.00in /  0mm
00:19 34.6 °F /  1.4 °C 29.1 °F /  -1.6 °C 30.04in /  1017.2hPa ENE 3.0mph /  4.8km/h 8.0mph /  12.9km/h 80% 0.00in /  0mm
00:24 34.7 °F /  1.5 °C 29.2 °F /  -1.6 °C 30.04in /  1017.2hPa ENE 1.0mph /  1.6km/h 6.0mph /  9.7km/h 80% 0.00in /  0mm
00:29 34.6 °F /  1.4 °C 29.1 °F /  -1.6 °C 30.04in /  1017.2hPa NE 5.0mph /  8km/h 8.0mph /  12.9km/h 80% 0.00in /  0mm
00:34 34.7 °F /  1.5 °C 29.2 °F /  -1.6 °C 30.03in /  1016.8hPa NNE 3.0mph /  4.8km/h 8.0mph /  12.9km/h 80% 0.00in /  0mm
00:39 34.6 °F /  1.4 °C 29.1 °F /  -1.6 °C 30.03in /  1016.8hPa ENE 5.0mph /  8km/h 10.0mph /  16.1km/h 80% 0.00in /  0mm
00:44 34.6 °F /  1.4 °C 29.1 °F /  -1.6 °C 30.03in /  1016.8hPa ENE 5.0mph /  8km/h 10.0mph /  16.1km/h 80% 0.00in /  0mm
00:49 34.6 °F /  1.4 °C 29.4 °F /  -1.4 °C 30.03in /  1016.8hPa ENE 5.0mph /  8km/h 10.0mph /  16.1km/h 81% 0.00in /  0mm
00:54 34.5 °F /  1.4 °C 29.3 °F /  -1.5 °C 30.02in /  1016.5hPa ENE 4.0mph /  6.4km/h 9.0mph /  14.5km/h 81% 0.00in /  0mm
00:59 34.4 °F /  1.3 °C 29.2 °F /  -1.6 °C 30.02in /  1016.5hPa East 5.0mph /  8km/h 7.0mph /  11.3km/h 81% 0.00in /  0mm
01:05 34.4 °F /  1.3 °C 29.2 °F /  -1.6 °C 30.02in /  1016.5hPa East 6.0mph /  9.7km/h 11.0mph /  17.7km/h 81% 0.00in /  0mm
01:10 34.3 °F /  1.3 °C 29.4 °F /  -1.4 °C 30.01in /  1016.1hPa East 6.0mph /  9.7km/h 7.0mph /  11.3km/h 82% 0.00in /  0mm
01:15 34.3 °F /  1.3 °C 29.4 °F /  -1.4 °C 30.02in /  1016.5hPa ENE 4.0mph /  6.4km/h 6.0mph /  9.7km/h 82% 0.00in /  0mm
01:20 34.3 °F /  1.3 °C 29.4 °F /  -1.4 °C 30.02in /  1016.5hPa ENE 4.0mph /  6.4km/h 8.0mph /  12.9km/h 82% 0.00in /  0mm
01:25 34.3 °F /  1.3 °C 29.7 °F /  -1.3 °C 30.01in /  1016.1hPa ENE 4.0mph /  6.4km/h 8.0mph /  12.9km/h 83% 0.00in /  0mm
01:30 34.2 °F /  1.2 °C 29.6 °F /  -1.3 °C 30.01in /  1016.1hPa ENE 3.0mph /  4.8km/h 8.0mph /  12.9km/h 83% 0.00in /  0mm
01:40 34.2 °F /  1.2 °C 29.6 °F /  -1.3 °C 30.01in /  1016.1hPa ENE 4.0mph /  6.4km/h 9.0mph /  14.5km/h 83% 0.00in /  0mm
01:45 34.1 °F /  1.2 °C 29.5 °F /  -1.4 °C 30.01in /  1016.1hPa ENE 4.0mph /  6.4km/h 8.0mph /  12.9km/h 83% 0.00in /  0mm
01:50 34.0 °F /  1.1 °C 29.7 °F /  -1.3 °C 30.01in /  1016.1hPa ENE 2.0mph /  3.2km/h 7.0mph /  11.3km/h 84% 0.00in /  0mm
01:55 34.0 °F /  1.1 °C 29.7 °F /  -1.3 °C 30.01in /  1016.1hPa NE 3.0mph /  4.8km/h 9.0mph /  14.5km/h 84% 0.00in /  0mm
02:00 34.0 °F /  1.1 °C 29.7 °F /  -1.3 °C 30.01in /  1016.1hPa ENE 4.0mph /  6.4km/h 9.0mph /  14.5km/h 84% 0.00in /  0mm
02:05 34.0 °F /  1.1 °C 29.7 °F /  -1.3 °C 30.00in /  1015.8hPa ENE 3.0mph /  4.8km/h 9.0mph /  14.5km/h 84% 0.00in /  0mm
02:10 33.9 °F /  1.1 °C 29.9 °F /  -1.2 °C 30.00in /  1015.8hPa ENE 4.0mph /  6.4km/h 9.0mph /  14.5km/h 85% 0.00in /  0mm
02:15 33.8 °F /  1 °C 29.8 °F /  -1.2 °C 30.00in /  1015.8hPa NE 4.0mph /  6.4km/h 9.0mph /  14.5km/h 85% 0.00in /  0mm
02:20 33.8 °F /  1 °C 29.8 °F /  -1.2 °C 30.00in /  1015.8hPa ENE 5.0mph /  8km/h 8.0mph /  12.9km/h 85% 0.00in /  0mm
02:25 33.7 °F /  0.9 °C 29.7 °F /  -1.3 °C 29.99in /  1015.5hPa NE 5.0mph /  8km/h 7.0mph /  11.3km/h 85% 0.00in /  0mm
02:30 33.6 °F /  0.9 °C 29.9 °F /  -1.2 °C 29.99in /  1015.5hPa ENE 8.0mph /  12.9km/h 9.0mph /  14.5km/h 86% 0.00in /  0mm
02:35 33.5 °F /  0.8 °C 29.8 °F /  -1.2 °C 29.99in /  1015.5hPa East 6.0mph /  9.7km/h 11.0mph /  17.7km/h 86% 0.00in /  0mm
02:40 33.5 °F /  0.8 °C 29.8 °F /  -1.2 °C 29.99in /  1015.5hPa ENE 5.0mph /  8km/h 11.0mph /  17.7km/h 86% 0.00in /  0mm
02:45 33.4 °F /  0.8 °C 29.9 °F /  -1.2 °C 29.98in /  1015.1hPa ENE 4.0mph /  6.4km/h 8.0mph /  12.9km/h 87% 0.00in /  0mm
02:50 33.4 °F /  0.8 °C 29.9 °F /  -1.2 °C 29.98in /  1015.1hPa ENE 4.0mph /  6.4km/h 9.0mph /  14.5km/h 87% 0.00in /  0mm
02:55 33.3 °F /  0.7 °C 29.8 °F /  -1.2 °C 29.97in /  1014.8hPa NE 2.0mph /  3.2km/h 9.0mph /  14.5km/h 87% 0.00in /  0mm
03:00 33.3 °F /  0.7 °C 29.8 °F /  -1.2 °C 29.98in /  1015.1hPa NE 3.0mph /  4.8km/h 7.0mph /  11.3km/h 87% 0.00in /  0mm
03:05 33.3 °F /  0.7 °C 29.8 °F /  -1.2 °C 29.98in /  1015.1hPa NE 3.0mph /  4.8km/h 8.0mph /  12.9km/h 87% 0.00in /  0mm
03:10 33.2 °F /  0.7 °C 30.0 °F /  -1.1 °C 29.97in /  1014.8hPa NE 7.0mph /  11.3km/h 10.0mph /  16.1km/h 88% 0.00in /  0mm
03:15 33.1 °F /  0.6 °C 29.9 °F /  -1.2 °C 29.97in /  1014.8hPa NE 5.0mph /  8km/h 10.0mph /  16.1km/h 88% 0.00in /  0mm
03:20 33.0 °F /  0.6 °C 29.8 °F /  -1.2 °C 29.97in /  1014.8hPa NE 5.0mph /  8km/h 11.0mph /  17.7km/h 88% 0.00in /  0mm
03:25 33.0 °F /  0.6 °C 29.8 °F /  -1.2 °C 29.97in /  1014.8hPa NE 6.0mph /  9.7km/h 11.0mph /  17.7km/h 88% 0.00in /  0mm
03:30 32.9 °F /  0.5 °C 29.7 °F /  -1.3 °C 29.97in /  1014.8hPa NE 7.0mph /  11.3km/h 12.0mph /  19.3km/h 88% 0.00in /  0mm
03:35 32.9 °F /  0.5 °C 30.0 °F /  -1.1 °C 29.97in /  1014.8hPa NE 5.0mph /  8km/h 12.0mph /  19.3km/h 89% 0.00in /  0mm
03:40 32.8 °F /  0.4 °C 29.9 °F /  -1.2 °C 29.97in /  1014.8hPa ENE 8.0mph /  12.9km/h 10.0mph /  16.1km/h 89% 0.00in /  0mm
03:45 32.8 °F /  0.4 °C 29.9 °F /  -1.2 °C 29.97in /  1014.8hPa NE 5.0mph /  8km/h 12.0mph /  19.3km/h 89% 0.00in /  0mm
03:50 32.7 °F /  0.4 °C 29.8 °F /  -1.2 °C 29.96in /  1014.4hPa NE 6.0mph /  9.7km/h 12.0mph /  19.3km/h 89% 0.01in /  0.25mm
03:55 32.6 °F /  0.3 °C 29.7 °F /  -1.3 °C 29.96in /  1014.4hPa NE 6.0mph /  9.7km/h 11.0mph /  17.7km/h 89% 0.01in /  0.25mm
04:00 32.5 °F /  0.3 °C 29.6 °F /  -1.3 °C 29.95in /  1014.1hPa NE 2.0mph /  3.2km/h 13.0mph /  20.9km/h 89% 0.01in /  0.25mm
04:05 32.4 °F /  0.2 °C 29.8 °F /  -1.2 °C 29.95in /  1014.1hPa NE 5.0mph /  8km/h 13.0mph /  20.9km/h 90% 0.01in /  0.25mm
04:10 32.2 °F /  0.1 °C 29.6 °F /  -1.3 °C 29.95in /  1014.1hPa NE 6.0mph /  9.7km/h 10.0mph /  16.1km/h 90% 0.01in /  0.25mm
04:15 32.2 °F /  0.1 °C 29.6 °F /  -1.3 °C 29.94in /  1013.8hPa East 7.0mph /  11.3km/h 11.0mph /  17.7km/h 90% 0.02in /  0.51mm
04:20 32.2 °F /  0.1 °C 29.6 °F /  -1.3 °C 29.94in /  1013.8hPa NE 6.0mph /  9.7km/h 12.0mph /  19.3km/h 90% 0.02in /  0.51mm
04:25 32.1 °F /  0.1 °C 29.5 °F /  -1.4 °C 29.94in /  1013.8hPa NE 5.0mph /  8km/h 12.0mph /  19.3km/h 90% 0.02in /  0.51mm
04:30 32.1 °F /  0.1 °C 29.5 °F /  -1.4 °C 29.93in /  1013.4hPa NE 5.0mph /  8km/h 10.0mph /  16.1km/h 90% 0.02in /  0.51mm
04:35 32.1 °F /  0.1 °C 29.5 °F /  -1.4 °C 29.93in /  1013.4hPa NE 6.0mph /  9.7km/h 11.0mph /  17.7km/h 90% 0.02in /  0.51mm
04:40 32.1 °F /  0.1 °C 29.8 °F /  -1.2 °C 29.92in /  1013.1hPa NE 5.0mph /  8km/h 13.0mph /  20.9km/h 91% 0.02in /  0.51mm
04:45 32.1 °F /  0.1 °C 29.8 °F /  -1.2 °C 29.92in /  1013.1hPa NE 6.0mph /  9.7km/h 13.0mph /  20.9km/h 91% 0.02in /  0.51mm
04:50 32.1 °F /  0.1 °C 29.8 °F /  -1.2 °C 29.92in /  1013.1hPa NE 6.0mph /  9.7km/h 12.0mph /  19.3km/h 91% 0.01in /  0.25mm
04:55 32.0 °F /  0 °C 29.7 °F /  -1.3 °C 29.92in /  1013.1hPa NE 6.0mph /  9.7km/h 13.0mph /  20.9km/h 91% 0.02in /  0.51mm
05:00 32.0 °F /  0 °C 29.7 °F /  -1.3 °C 29.92in /  1013.1hPa ENE 5.0mph /  8km/h 9.0mph /  14.5km/h 91% 0.02in /  0.51mm
05:04 32.0 °F /  0 °C 29.7 °F /  -1.3 °C 29.92in /  1013.1hPa NE 4.0mph /  6.4km/h 8.0mph /  12.9km/h 91% 0.02in /  0.51mm
05:10 32.1 °F /  0.1 °C 29.8 °F /  -1.2 °C 29.92in /  1013.1hPa East 3.0mph /  4.8km/h 9.0mph /  14.5km/h 91% 0.02in /  0.51mm
05:15 32.1 °F /  0.1 °C 29.8 °F /  -1.2 °C 29.91in /  1012.8hPa ENE 3.0mph /  4.8km/h 9.0mph /  14.5km/h 91% 0.02in /  0.51mm
05:20 32.1 °F /  0.1 °C 29.8 °F /  -1.2 °C 29.91in /  1012.8hPa ENE 4.0mph /  6.4km/h 9.0mph /  14.5km/h 91% 0.02in /  0.51mm
05:25 32.2 °F /  0.1 °C 29.9 °F /  -1.2 °C 29.91in /  1012.8hPa ENE 4.0mph /  6.4km/h 8.0mph /  12.9km/h 91% 0.02in /  0.51mm
05:30 32.2 °F /  0.1 °C 29.9 °F /  -1.2 °C 29.91in /  1012.8hPa NE 4.0mph /  6.4km/h 8.0mph /  12.9km/h 91% 0.03in /  0.76mm
05:35 32.2 °F /  0.1 °C 29.9 °F /  -1.2 °C 29.90in /  1012.4hPa NE 4.0mph /  6.4km/h 8.0mph /  12.9km/h 91% 0.03in /  0.76mm
05:40 32.2 °F /  0.1 °C 30.1 °F /  -1.1 °C 29.90in /  1012.4hPa ENE 2.0mph /  3.2km/h 7.0mph /  11.3km/h 92% 0.04in /  1.02mm
05:45 32.2 °F /  0.1 °C 30.1 °F /  -1.1 °C 29.90in /  1012.4hPa NE 6.0mph /  9.7km/h 10.0mph /  16.1km/h 92% 0.04in /  1.02mm
05:50 32.2 °F /  0.1 °C 30.1 °F /  -1.1 °C 29.90in /  1012.4hPa ENE 5.0mph /  8km/h 9.0mph /  14.5km/h 92% 0.04in /  1.02mm
05:59 32.2 °F /  0.1 °C 30.1 °F /  -1.1 °C 29.90in /  1012.4hPa NE 3.0mph /  4.8km/h 8.0mph /  12.9km/h 92% 0.04in /  1.02mm
06:05 32.3 °F /  0.2 °C 30.2 °F /  -1 °C 29.90in /  1012.4hPa NE 2.0mph /  3.2km/h 6.0mph /  9.7km/h 92% 0.04in /  1.02mm
06:10 32.2 °F /  0.1 °C 30.1 °F /  -1.1 °C 29.90in /  1012.4hPa ENE 2.0mph /  3.2km/h 7.0mph /  11.3km/h 92% 0.05in /  1.27mm
06:15 32.3 °F /  0.2 °C 30.2 °F /  -1 °C 29.90in /  1012.4hPa ENE 3.0mph /  4.8km/h 6.0mph /  9.7km/h 92% 0.04in /  1.02mm
06:20 32.3 °F /  0.2 °C 30.2 °F /  -1 °C 29.89in /  1012.1hPa NE 2.0mph /  3.2km/h 8.0mph /  12.9km/h 92% 0.05in /  1.27mm
06:25 32.3 °F /  0.2 °C 30.2 °F /  -1 °C 29.89in /  1012.1hPa NE 3.0mph /  4.8km/h 8.0mph /  12.9km/h 92% 0.05in /  1.27mm
06:35 32.3 °F /  0.2 °C 30.2 °F /  -1 °C 29.89in /  1012.1hPa NE 4.0mph /  6.4km/h 7.0mph /  11.3km/h 92% 0.05in /  1.27mm
06:40 32.2 °F /  0.1 °C 30.1 °F /  -1.1 °C 29.88in /  1011.7hPa NNE 2.0mph /  3.2km/h 9.0mph /  14.5km/h 92% 0.05in /  1.27mm
06:45 32.2 °F /  0.1 °C 30.1 °F /  -1.1 °C 29.88in /  1011.7hPa NE 4.0mph /  6.4km/h 9.0mph /  14.5km/h 92% 0.05in /  1.27mm
06:50 32.1 °F /  0.1 °C 30.0 °F /  -1.1 °C 29.88in /  1011.7hPa ENE 8.0mph /  12.9km/h 8.0mph /  12.9km/h 92% 0.05in /  1.27mm
07:00 32.0 °F /  0 °C 29.9 °F /  -1.2 °C 29.88in /  1011.7hPa NE 4.0mph /  6.4km/h 10.0mph /  16.1km/h 92% 0.05in /  1.27mm
07:05 32.0 °F /  0 °C 29.9 °F /  -1.2 °C 29.88in /  1011.7hPa NE 4.0mph /  6.4km/h 9.0mph /  14.5km/h 92% 0.05in /  1.27mm
07:09 32.0 °F /  0 °C 29.9 °F /  -1.2 °C 29.88in /  1011.7hPa NE 6.0mph /  9.7km/h 8.0mph /  12.9km/h 92% 0.05in /  1.27mm
07:14 32.1 °F /  0.1 °C 30.0 °F /  -1.1 °C 29.88in /  1011.7hPa NE 9.0mph /  14.5km/h 10.0mph /  16.1km/h 92% 0.05in /  1.27mm
07:20 32.0 °F /  0 °C 29.9 °F /  -1.2 °C 29.88in /  1011.7hPa NE 2.0mph /  3.2km/h 9.0mph /  14.5km/h 92% 0.04in /  1.02mm
07:25 32.1 °F /  0.1 °C 30.0 °F /  -1.1 °C 29.87in /  1011.4hPa NE 2.0mph /  3.2km/h 7.0mph /  11.3km/h 92% 0.05in /  1.27mm
07:30 32.0 °F /  0 °C 29.9 °F /  -1.2 °C 29.88in /  1011.7hPa NE 7.0mph /  11.3km/h 8.0mph /  12.9km/h 92% 0.04in /  1.02mm
07:34 32.0 °F /  0 °C 29.9 °F /  -1.2 °C 29.88in /  1011.7hPa NE 5.0mph /  8km/h 8.0mph /  12.9km/h 92% 0.04in /  1.02mm
07:40 32.0 °F /  0 °C 29.9 °F /  -1.2 °C 29.88in /  1011.7hPa NE 4.0mph /  6.4km/h 10.0mph /  16.1km/h 92% 0.04in /  1.02mm
07:45 32.0 °F /  0 °C 29.9 °F /  -1.2 °C 29.87in /  1011.4hPa NNE 2.0mph /  3.2km/h 6.0mph /  9.7km/h 92% 0.04in /  1.02mm
07:50 31.9 °F /  -0.1 °C 29.8 °F /  -1.2 °C 29.87in /  1011.4hPa NE 4.0mph /  6.4km/h 7.0mph /  11.3km/h 92% 0.05in /  1.27mm
07:55 31.9 °F /  -0.1 °C 29.8 °F /  -1.2 °C 29.87in /  1011.4hPa ENE 3.0mph /  4.8km/h 7.0mph /  11.3km/h 92% 0.05in /  1.27mm
08:00 31.9 °F /  -0.1 °C 29.8 °F /  -1.2 °C 29.87in /  1011.4hPa NE 3.0mph /  4.8km/h 9.0mph /  14.5km/h 92% 0.04in /  1.02mm
08:04 31.8 °F /  -0.1 °C 29.7 °F /  -1.3 °C 29.87in /  1011.4hPa NE 4.0mph /  6.4km/h 9.0mph /  14.5km/h 92% 0.05in /  1.27mm
08:10 31.9 °F /  -0.1 °C 29.8 °F /  -1.2 °C 29.86in /  1011.1hPa NE 4.0mph /  6.4km/h 8.0mph /  12.9km/h 92% 0.04in /  1.02mm
08:14 31.8 °F /  -0.1 °C 29.7 °F /  -1.3 °C 29.86in /  1011.1hPa East 3.0mph /  4.8km/h 8.0mph /  12.9km/h 92% 0.04in /  1.02mm
08:20 31.9 °F /  -0.1 °C 29.8 °F /  -1.2 °C 29.86in /  1011.1hPa NE 5.0mph /  8km/h 7.0mph /  11.3km/h 92% 0.05in /  1.27mm
08:25 32.0 °F /  0 °C 30.2 °F /  -1 °C 29.86in /  1011.1hPa NE 3.0mph /  4.8km/h 7.0mph /  11.3km/h 93% 0.04in /  1.02mm
08:30 32.0 °F /  0 °C 30.2 °F /  -1 °C 29.85in /  1010.7hPa ENE 2.0mph /  3.2km/h 6.0mph /  9.7km/h 93% 0.05in /  1.27mm
08:34 32.0 °F /  0 °C 30.2 °F /  -1 °C 29.84in /  1010.4hPa ENE 3.0mph /  4.8km/h 6.0mph /  9.7km/h 93% 0.06in /  1.52mm
08:40 32.1 °F /  0.1 °C 30.3 °F /  -0.9 °C 29.84in /  1010.4hPa ENE 3.0mph /  4.8km/h 6.0mph /  9.7km/h 93% 0.05in /  1.27mm
08:44 32.2 °F /  0.1 °C 30.4 °F /  -0.9 °C 29.83in /  1010hPa East 2.0mph /  3.2km/h 5.0mph /  8km/h 93% 0.06in /  1.52mm
08:50 32.2 °F /  0.1 °C 30.4 °F /  -0.9 °C 29.82in /  1009.7hPa ENE 2.0mph /  3.2km/h 6.0mph /  9.7km/h 93% 0.05in /  1.27mm
08:55 32.3 °F /  0.2 °C 30.5 °F /  -0.8 °C 29.82in /  1009.7hPa ENE 2.0mph /  3.2km/h 6.0mph /  9.7km/h 93% 0.06in /  1.52mm
09:00 32.4 °F /  0.2 °C 30.6 °F /  -0.8 °C 29.80in /  1009hPa SE 6.0mph /  9.7km/h 7.0mph /  11.3km/h 93% 0.06in /  1.52mm
09:04 32.5 °F /  0.3 °C 30.7 °F /  -0.7 °C 29.80in /  1009hPa ESE 3.0mph /  4.8km/h 8.0mph /  12.9km/h 93% 0.05in /  1.27mm
09:09 32.5 °F /  0.3 °C 30.7 °F /  -0.7 °C 29.79in /  1008.7hPa ESE 3.0mph /  4.8km/h 10.0mph /  16.1km/h 93% 0.06in /  1.52mm
09:15 32.6 °F /  0.3 °C 30.8 °F /  -0.7 °C 29.79in /  1008.7hPa ESE 3.0mph /  4.8km/h 10.0mph /  16.1km/h 93% 0.05in /  1.27mm
09:20 32.7 °F /  0.4 °C 30.9 °F /  -0.6 °C 29.78in /  1008.4hPa East 3.0mph /  4.8km/h 9.0mph /  14.5km/h 93% 0.06in /  1.52mm
09:24 32.8 °F /  0.4 °C 31.0 °F /  -0.6 °C 29.78in /  1008.4hPa East 3.0mph /  4.8km/h 6.0mph /  9.7km/h 93% 0.06in /  1.52mm
09:30 32.9 °F /  0.5 °C 31.1 °F /  -0.5 °C 29.77in /  1008hPa East 2.0mph /  3.2km/h 7.0mph /  11.3km/h 93% 0.06in /  1.52mm
09:34 33.0 °F /  0.6 °C 31.2 °F /  -0.4 °C 29.78in /  1008.4hPa East 2.0mph /  3.2km/h 7.0mph /  11.3km/h 93% 0.05in /  1.27mm
09:40 33.0 °F /  0.6 °C 31.2 °F /  -0.4 °C 29.78in /  1008.4hPa East 2.0mph /  3.2km/h 5.0mph /  8km/h 93% 0.05in /  1.27mm
09:45 33.1 °F /  0.6 °C 31.3 °F /  -0.4 °C 29.77in /  1008hPa ENE 1.0mph /  1.6km/h 3.0mph /  4.8km/h 93% 0.05in /  1.27mm
09:50 33.1 °F /  0.6 °C 31.3 °F /  -0.4 °C 29.77in /  1008hPa NNE 2.0mph /  3.2km/h 3.0mph /  4.8km/h 93% 0.05in /  1.27mm
09:55 33.2 °F /  0.7 °C 31.4 °F /  -0.3 °C 29.77in /  1008hPa NNE 1.0mph /  1.6km/h 3.0mph /  4.8km/h 93% 0.04in /  1.02mm
10:00 33.2 °F /  0.7 °C 31.4 °F /  -0.3 °C 29.77in /  1008hPa NNE 2.0mph /  3.2km/h 3.0mph /  4.8km/h 93% 0.05in /  1.27mm
10:05 33.3 °F /  0.7 °C 31.5 °F /  -0.3 °C 29.77in /  1008hPa NNE 1.0mph /  1.6km/h 3.0mph /  4.8km/h 93% 0.04in /  1.02mm
10:10 33.2 °F /  0.7 °C 31.4 °F /  -0.3 °C 29.76in /  1007.7hPa North 2.0mph /  3.2km/h 3.0mph /  4.8km/h 93% 0.05in /  1.27mm
10:15 33.2 °F /  0.7 °C 31.4 °F /  -0.3 °C 29.75in /  1007.3hPa North 2.0mph /  3.2km/h 4.0mph /  6.4km/h 93% 0.05in /  1.27mm
10:20 33.2 °F /  0.7 °C 31.4 °F /  -0.3 °C 29.75in /  1007.3hPa North 2.0mph /  3.2km/h 4.0mph /  6.4km/h 93% 0.04in /  1.02mm
10:25 33.3 °F /  0.7 °C 31.8 °F /  -0.1 °C 29.73in /  1006.7hPa NNE 2.0mph /  3.2km/h 8.0mph /  12.9km/h 94% 0.04in /  1.02mm
10:30 33.4 °F /  0.8 °C 31.9 °F /  -0.1 °C 29.73in /  1006.7hPa NE 2.0mph /  3.2km/h 8.0mph /  12.9km/h 94% 0.03in /  0.76mm
10:35 33.5 °F /  0.8 °C 32.0 °F /  0 °C 29.73in /  1006.7hPa NE 2.0mph /  3.2km/h 4.0mph /  6.4km/h 94% 0.04in /  1.02mm
10:39 33.9 °F /  1.1 °C 32.4 °F /  0.2 °C 29.73in /  1006.7hPa North 3.0mph /  4.8km/h 4.0mph /  6.4km/h 94% 0.04in /  1.02mm
10:44 34.2 °F /  1.2 °C 32.7 °F /  0.4 °C 29.72in /  1006.3hPa NNE 3.0mph /  4.8km/h 4.0mph /  6.4km/h 94% 0.03in /  0.76mm
10:50 34.4 °F /  1.3 °C 32.9 °F /  0.5 °C 29.72in /  1006.3hPa NNE 3.0mph /  4.8km/h 4.0mph /  6.4km/h 94% 0.03in /  0.76mm
10:54 34.5 °F /  1.4 °C 33.0 °F /  0.6 °C 29.72in /  1006.3hPa NNE 2.0mph /  3.2km/h 4.0mph /  6.4km/h 94% 0.03in /  0.76mm
11:00 34.5 °F /  1.4 °C 33.0 °F /  0.6 °C 29.72in /  1006.3hPa North 3.0mph /  4.8km/h 3.0mph /  4.8km/h 94% 0.02in /  0.51mm
11:05 34.6 °F /  1.4 °C 33.1 °F /  0.6 °C 29.71in /  1006hPa NNE 2.0mph /  3.2km/h 4.0mph /  6.4km/h 94% 0.02in /  0.51mm
11:10 34.6 °F /  1.4 °C 33.1 °F /  0.6 °C 29.71in /  1006hPa NNE 3.0mph /  4.8km/h 3.0mph /  4.8km/h 94% 0.01in /  0.25mm
11:15 34.6 °F /  1.4 °C 33.1 °F /  0.6 °C 29.72in /  1006.3hPa North 3.0mph /  4.8km/h 6.0mph /  9.7km/h 94% 0.01in /  0.25mm
11:19 34.3 °F /  1.3 °C 32.5 °F /  0.3 °C 29.73in /  1006.7hPa North 4.0mph /  6.4km/h 8.0mph /  12.9km/h 93% 0.01in /  0.25mm
11:25 34.1 °F /  1.2 °C 32.6 °F /  0.3 °C 29.73in /  1006.7hPa North 3.0mph /  4.8km/h 8.0mph /  12.9km/h 94% 0.01in /  0.25mm
11:30 34.0 °F /  1.1 °C 32.5 °F /  0.3 °C 29.73in /  1006.7hPa North 2.0mph /  3.2km/h 7.0mph /  11.3km/h 94% 0.01in /  0.25mm
11:35 33.8 °F /  1 °C 32.0 °F /  0 °C 29.73in /  1006.7hPa NNW 3.0mph /  4.8km/h 7.0mph /  11.3km/h 93% 0.01in /  0.25mm
11:40 33.7 °F /  0.9 °C 32.2 °F /  0.1 °C 29.73in /  1006.7hPa North 3.0mph /  4.8km/h 7.0mph /  11.3km/h 94% 0.01in /  0.25mm
11:45 33.7 °F /  0.9 °C 32.2 °F /  0.1 °C 29.73in /  1006.7hPa NNW 4.0mph /  6.4km/h 5.0mph /  8km/h 94% 0.01in /  0.25mm
11:49 33.9 °F /  1.1 °C 32.4 °F /  0.2 °C 29.74in /  1007hPa NNW 2.0mph /  3.2km/h 5.0mph /  8km/h 94% 0.02in /  0.51mm
11:55 33.8 °F /  1 °C 32.3 °F /  0.2 °C 29.74in /  1007hPa NW 2.0mph /  3.2km/h 6.0mph /  9.7km/h 94% 0.02in /  0.51mm
12:00 33.7 °F /  0.9 °C 32.2 °F /  0.1 °C 29.74in /  1007hPa NW 3.0mph /  4.8km/h 6.0mph /  9.7km/h 94% 0.03in /  0.76mm
12:04 33.5 °F /  0.8 °C 32.0 °F /  0 °C 29.73in /  1006.7hPa NNW 3.0mph /  4.8km/h 6.0mph /  9.7km/h 94% 0.03in /  0.76mm
12:09 33.6 °F /  0.9 °C 32.1 °F /  0.1 °C 29.73in /  1006.7hPa Calm   4.0mph /  6.4km/h 94% 0.04in /  1.02mm
12:15 33.6 °F /  0.9 °C 32.1 °F /  0.1 °C 29.72in /  1006.3hPa North 2.0mph /  3.2km/h 5.0mph /  8km/h 94% 0.04in /  1.02mm
12:20 34.0 °F /  1.1 °C 32.5 °F /  0.3 °C 29.72in /  1006.3hPa North 2.0mph /  3.2km/h 5.0mph /  8km/h 94% 0.05in /  1.27mm
12:25 33.9 °F /  1.1 °C 32.4 °F /  0.2 °C 29.72in /  1006.3hPa NW 3.0mph /  4.8km/h 6.0mph /  9.7km/h 94% 0.05in /  1.27mm
12:29 33.8 °F /  1 °C 32.3 °F /  0.2 °C 29.72in /  1006.3hPa NNW 3.0mph /  4.8km/h 6.0mph /  9.7km/h 94% 0.05in /  1.27mm
12:35 33.8 °F /  1 °C 32.3 °F /  0.2 °C 29.72in /  1006.3hPa NNW 3.0mph /  4.8km/h 7.0mph /  11.3km/h 94% 0.05in /  1.27mm
12:40 33.8 °F /  1 °C 32.3 °F /  0.2 °C 29.72in /  1006.3hPa NW 3.0mph /  4.8km/h 7.0mph /  11.3km/h 94% 0.05in /  1.27mm
12:45 33.8 °F /  1 °C 32.3 °F /  0.2 °C 29.72in /  1006.3hPa WNW 5.0mph /  8km/h 5.0mph /  8km/h 94% 0.05in /  1.27mm
12:49 33.7 °F /  0.9 °C 32.2 °F /  0.1 °C 29.71in /  1006hPa NNW 3.0mph /  4.8km/h 5.0mph /  8km/h 94% 0.05in /  1.27mm
12:54 33.9 °F /  1.1 °C 32.4 °F /  0.2 °C 29.71in /  1006hPa NW 1.0mph /  1.6km/h 3.0mph /  4.8km/h 94% 0.05in /  1.27mm
12:59 33.9 °F /  1.1 °C 32.4 °F /  0.2 °C 29.72in /  1006.3hPa NW 2.0mph /  3.2km/h 5.0mph /  8km/h 94% 0.04in /  1.02mm
13:04 33.8 °F /  1 °C 32.3 °F /  0.2 °C 29.71in /  1006hPa Calm   4.0mph /  6.4km/h 94% 0.04in /  1.02mm
13:09 33.7 °F /  0.9 °C 32.2 °F /  0.1 °C 29.71in /  1006hPa NW 1.0mph /  1.6km/h 5.0mph /  8km/h 94% 0.04in /  1.02mm
13:15 33.7 °F /  0.9 °C 32.2 °F /  0.1 °C 29.71in /  1006hPa NW 2.0mph /  3.2km/h 5.0mph /  8km/h 94% 0.04in /  1.02mm
13:20 33.5 °F /  0.8 °C 32.0 °F /  0 °C 29.72in /  1006.3hPa NW 2.0mph /  3.2km/h 7.0mph /  11.3km/h 94% 0.03in /  0.76mm
13:25 33.3 °F /  0.7 °C 31.8 °F /  -0.1 °C 29.72in /  1006.3hPa NW 4.0mph /  6.4km/h 7.0mph /  11.3km/h 94% 0.03in /  0.76mm
13:29 33.0 °F /  0.6 °C 31.2 °F /  -0.4 °C 29.72in /  1006.3hPa NW 4.0mph /  6.4km/h 9.0mph /  14.5km/h 93% 0.03in /  0.76mm
13:35 32.7 °F /  0.4 °C 31.2 °F /  -0.4 °C 29.72in /  1006.3hPa NW 5.0mph /  8km/h 9.0mph /  14.5km/h 94% 0.02in /  0.51mm
13:40 32.6 °F /  0.3 °C 31.1 °F /  -0.5 °C 29.71in /  1006hPa NW 5.0mph /  8km/h 9.0mph /  14.5km/h 94% 0.02in /  0.51mm
13:49 32.5 °F /  0.3 °C 30.7 °F /  -0.7 °C 29.71in /  1006hPa West 1.0mph /  1.6km/h 8.0mph /  12.9km/h 93% 0.02in /  0.51mm
13:54 32.5 °F /  0.3 °C 30.7 °F /  -0.7 °C 29.70in /  1005.6hPa NNW 2.0mph /  3.2km/h 6.0mph /  9.7km/h 93% 0.02in /  0.51mm
13:59 32.7 °F /  0.4 °C 31.2 °F /  -0.4 °C 29.70in /  1005.6hPa NW 4.0mph /  6.4km/h 7.0mph /  11.3km/h 94% 0.02in /  0.51mm
14:05 32.7 °F /  0.4 °C 31.2 °F /  -0.4 °C 29.70in /  1005.6hPa NW 3.0mph /  4.8km/h 8.0mph /  12.9km/h 94% 0.03in /  0.76mm
14:10 32.7 °F /  0.4 °C 30.9 °F /  -0.6 °C 29.70in /  1005.6hPa NW 2.0mph /  3.2km/h 8.0mph /  12.9km/h 93% 0.02in /  0.51mm
14:14 32.6 °F /  0.3 °C 30.8 °F /  -0.7 °C 29.70in /  1005.6hPa NNW 4.0mph /  6.4km/h 8.0mph /  12.9km/h 93% 0.02in /  0.51mm
14:20 32.4 °F /  0.2 °C 30.6 °F /  -0.8 °C 29.71in /  1006hPa NW 5.0mph /  8km/h 6.0mph /  9.7km/h 93% 0.02in /  0.51mm
14:25 32.2 °F /  0.1 °C 30.4 °F /  -0.9 °C 29.71in /  1006hPa NW 2.0mph /  3.2km/h 9.0mph /  14.5km/h 93% 0.02in /  0.51mm
14:30 31.9 °F /  -0.1 °C 30.1 °F /  -1.1 °C 29.72in /  1006.3hPa NW 4.0mph /  6.4km/h 9.0mph /  14.5km/h 93% 0.02in /  0.51mm
14:34 31.9 °F /  -0.1 °C 30.1 °F /  -1.1 °C 29.72in /  1006.3hPa Calm   3.0mph /  4.8km/h 93% 0.02in /  0.51mm
14:39 31.8 °F /  -0.1 °C 30.0 °F /  -1.1 °C 29.72in /  1006.3hPa WNW 1.0mph /  1.6km/h 5.0mph /  8km/h 93% 0.02in /  0.51mm
14:44 31.7 °F /  -0.2 °C 29.9 °F /  -1.2 °C 29.71in /  1006hPa NW 2.0mph /  3.2km/h 5.0mph /  8km/h 93% 0.01in /  0.25mm
14:50 31.7 °F /  -0.2 °C 29.9 °F /  -1.2 °C 29.71in /  1006hPa NW 2.0mph /  3.2km/h 5.0mph /  8km/h 93% 0.01in /  0.25mm
14:54 31.6 °F /  -0.2 °C 29.8 °F /  -1.2 °C 29.72in /  1006.3hPa NW 2.0mph /  3.2km/h 5.0mph /  8km/h 93% 0.01in /  0.25mm
15:00 31.4 °F /  -0.3 °C 29.6 °F /  -1.3 °C 29.71in /  1006hPa North 1.0mph /  1.6km/h 4.0mph /  6.4km/h 93% 0.01in /  0.25mm
15:04 31.2 °F /  -0.4 °C 29.4 °F /  -1.4 °C 29.71in /  1006hPa WNW 1.0mph /  1.6km/h 4.0mph /  6.4km/h 93% 0.01in /  0.25mm
15:09 31.1 °F /  -0.5 °C 29.3 °F /  -1.5 °C 29.71in /  1006hPa NW 2.0mph /  3.2km/h 5.0mph /  8km/h 93% 0.01in /  0.25mm
15:14 31.0 °F /  -0.6 °C 28.9 °F /  -1.7 °C 29.71in /  1006hPa WNW 2.0mph /  3.2km/h 5.0mph /  8km/h 92% 0.01in /  0.25mm
15:19 30.9 °F /  -0.6 °C 28.9 °F /  -1.7 °C 29.71in /  1006hPa NW 2.0mph /  3.2km/h 3.0mph /  4.8km/h 92% 0.01in /  0.25mm
15:24 30.9 °F /  -0.6 °C 28.9 °F /  -1.7 °C 29.71in /  1006hPa WNW 1.0mph /  1.6km/h 4.0mph /  6.4km/h 92% 0.01in /  0.25mm
15:29 30.9 °F /  -0.6 °C 28.9 °F /  -1.7 °C 29.72in /  1006.3hPa NW 3.0mph /  4.8km/h 4.0mph /  6.4km/h 92% 0.01in /  0.25mm
15:34 30.9 °F /  -0.6 °C 29.1 °F /  -1.6 °C 29.72in /  1006.3hPa WNW 2.0mph /  3.2km/h 4.0mph /  6.4km/h 93% 0.01in /  0.25mm
15:39 31.0 °F /  -0.6 °C 28.9 °F /  -1.7 °C 29.73in /  1006.7hPa WNW 2.0mph /  3.2km/h 6.0mph /  9.7km/h 92% 0.01in /  0.25mm
15:44 30.9 °F /  -0.6 °C 28.9 °F /  -1.7 °C 29.73in /  1006.7hPa West 3.0mph /  4.8km/h 6.0mph /  9.7km/h 92% 0.01in /  0.25mm
15:50 30.8 °F /  -0.7 °C 28.8 °F /  -1.8 °C 29.73in /  1006.7hPa WNW 3.0mph /  4.8km/h 5.0mph /  8km/h 92% 0.01in /  0.25mm
15:54 30.8 °F /  -0.7 °C 28.8 °F /  -1.8 °C 29.73in /  1006.7hPa West 2.0mph /  3.2km/h 5.0mph /  8km/h 92% 0.01in /  0.25mm
15:59 30.9 °F /  -0.6 °C 28.9 °F /  -1.7 °C 29.72in /  1006.3hPa WSW 3.0mph /  4.8km/h 6.0mph /  9.7km/h 92% 0.01in /  0.25mm
16:04 30.9 °F /  -0.6 °C 28.9 °F /  -1.7 °C 29.72in /  1006.3hPa West 2.0mph /  3.2km/h 7.0mph /  11.3km/h 92% 0.00in /  0mm
16:09 31.0 °F /  -0.6 °C 28.9 °F /  -1.7 °C 29.72in /  1006.3hPa SW 6.0mph /  9.7km/h 7.0mph /  11.3km/h 92% 0.00in /  0mm
16:14 31.0 °F /  -0.6 °C 28.9 °F /  -1.7 °C 29.72in /  1006.3hPa WSW 3.0mph /  4.8km/h 8.0mph /  12.9km/h 92% 0.00in /  0mm
16:19 31.1 °F /  -0.5 °C 29.0 °F /  -1.7 °C 29.73in /  1006.7hPa WSW 4.0mph /  6.4km/h 10.0mph /  16.1km/h 92% 0.00in /  0mm
16:24 31.1 °F /  -0.5 °C 29.0 °F /  -1.7 °C 29.73in /  1006.7hPa WSW 3.0mph /  4.8km/h 8.0mph /  12.9km/h 92% 0.00in /  0mm
16:29 31.1 °F /  -0.5 °C 29.0 °F /  -1.7 °C 29.73in /  1006.7hPa WSW 4.0mph /  6.4km/h 9.0mph /  14.5km/h 92% 0.00in /  0mm
16:35 31.1 °F /  -0.5 °C 29.0 °F /  -1.7 °C 29.73in /  1006.7hPa WSW 3.0mph /  4.8km/h 9.0mph /  14.5km/h 92% 0.00in /  0mm
16:45 31.1 °F /  -0.5 °C 29.0 °F /  -1.7 °C 29.73in /  1006.7hPa WSW 5.0mph /  8km/h 12.0mph /  19.3km/h 92% 0.00in /  0mm
16:50 31.1 °F /  -0.5 °C 29.0 °F /  -1.7 °C 29.73in /  1006.7hPa WSW 5.0mph /  8km/h 10.0mph /  16.1km/h 92% 0.00in /  0mm
16:54 31.2 °F /  -0.4 °C 29.1 °F /  -1.6 °C 29.73in /  1006.7hPa WSW 5.0mph /  8km/h 10.0mph /  16.1km/h 92% 0.00in /  0mm
17:00 31.2 °F /  -0.4 °C 29.1 °F /  -1.6 °C 29.72in /  1006.3hPa WSW 4.0mph /  6.4km/h 11.0mph /  17.7km/h 92% 0.00in /  0mm
17:05 31.3 °F /  -0.4 °C 29.2 °F /  -1.6 °C 29.72in /  1006.3hPa SW 6.0mph /  9.7km/h 10.0mph /  16.1km/h 92% 0.00in /  0mm
17:09 31.4 °F /  -0.3 °C 29.3 °F /  -1.5 °C 29.72in /  1006.3hPa SW 6.0mph /  9.7km/h 10.0mph /  16.1km/h 92% 0.00in /  0mm
17:14 31.4 °F /  -0.3 °C 29.3 °F /  -1.5 °C 29.72in /  1006.3hPa SW 3.0mph /  4.8km/h 9.0mph /  14.5km/h 92% 0.00in /  0mm
17:19 31.4 °F /  -0.3 °C 29.3 °F /  -1.5 °C 29.72in /  1006.3hPa WSW 3.0mph /  4.8km/h 7.0mph /  11.3km/h 92% 0.00in /  0mm
17:24 31.4 °F /  -0.3 °C 29.3 °F /  -1.5 °C 29.72in /  1006.3hPa WSW 4.0mph /  6.4km/h 9.0mph /  14.5km/h 92% 0.00in /  0mm
17:29 31.4 °F /  -0.3 °C 29.6 °F /  -1.3 °C 29.72in /  1006.3hPa WSW 4.0mph /  6.4km/h 9.0mph /  14.5km/h 93% 0.00in /  0mm
17:34 31.5 °F /  -0.3 °C 29.7 °F /  -1.3 °C 29.72in /  1006.3hPa WSW 4.0mph /  6.4km/h 8.0mph /  12.9km/h 93% 0.00in /  0mm
17:39 31.5 °F /  -0.3 °C 29.4 °F /  -1.4 °C 29.73in /  1006.7hPa SW 4.0mph /  6.4km/h 9.0mph /  14.5km/h 92% 0.00in /  0mm
17:44 31.7 °F /  -0.2 °C 29.9 °F /  -1.2 °C 29.72in /  1006.3hPa WSW 5.0mph /  8km/h 9.0mph /  14.5km/h 93% 0.00in /  0mm
17:49 31.7 °F /  -0.2 °C 29.9 °F /  -1.2 °C 29.72in /  1006.3hPa WSW 4.0mph /  6.4km/h 8.0mph /  12.9km/h 93% 0.00in /  0mm
17:54 32.1 °F /  0.1 °C 30.3 °F /  -0.9 °C 29.72in /  1006.3hPa SW 5.0mph /  8km/h 11.0mph /  17.7km/h 93% 0.00in /  0mm
17:59 32.3 °F /  0.2 °C 30.5 °F /  -0.8 °C 29.72in /  1006.3hPa SSE 8.0mph /  12.9km/h 17.0mph /  27.4km/h 93% 0.00in /  0mm
18:04 32.6 °F /  0.3 °C 30.8 °F /  -0.7 °C 29.73in /  1006.7hPa SW 5.0mph /  8km/h 15.0mph /  24.1km/h 93% 0.00in /  0mm
18:09 32.7 °F /  0.4 °C 30.9 °F /  -0.6 °C 29.73in /  1006.7hPa SW 7.0mph /  11.3km/h 16.0mph /  25.7km/h 93% 0.00in /  0mm
18:14 32.8 °F /  0.4 °C 31.0 °F /  -0.6 °C 29.73in /  1006.7hPa West 10.0mph /  16.1km/h 14.0mph /  22.5km/h 93% 0.00in /  0mm
18:19 32.8 °F /  0.4 °C 31.0 °F /  -0.6 °C 29.73in /  1006.7hPa WSW 8.0mph /  12.9km/h 17.0mph /  27.4km/h 93% 0.00in /  0mm
18:24 32.8 °F /  0.4 °C 31.0 °F /  -0.6 °C 29.73in /  1006.7hPa WSW 8.0mph /  12.9km/h 17.0mph /  27.4km/h 93% 0.00in /  0mm
18:29 32.8 °F /  0.4 °C 31.0 °F /  -0.6 °C 29.73in /  1006.7hPa WSW 7.0mph /  11.3km/h 16.0mph /  25.7km/h 93% 0.00in /  0mm
18:34 32.8 °F /  0.4 °C 31.0 °F /  -0.6 °C 29.73in /  1006.7hPa WSW 7.0mph /  11.3km/h 15.0mph /  24.1km/h 93% 0.00in /  0mm
18:39 32.8 °F /  0.4 °C 31.0 °F /  -0.6 °C 29.73in /  1006.7hPa WSW 7.0mph /  11.3km/h 17.0mph /  27.4km/h 93% 0.00in /  0mm
18:44 33.0 °F /  0.6 °C 31.5 °F /  -0.3 °C 29.73in /  1006.7hPa WNW 5.0mph /  8km/h 13.0mph /  20.9km/h 94% 0.00in /  0mm
18:49 33.0 °F /  0.6 °C 31.2 °F /  -0.4 °C 29.73in /  1006.7hPa WSW 7.0mph /  11.3km/h 14.0mph /  22.5km/h 93% 0.00in /  0mm
18:54 33.1 °F /  0.6 °C 31.3 °F /  -0.4 °C 29.72in /  1006.3hPa WSW 7.0mph /  11.3km/h 14.0mph /  22.5km/h 93% 0.00in /  0mm
18:59 33.1 °F /  0.6 °C 31.3 °F /  -0.4 °C 29.72in /  1006.3hPa WSW 7.0mph /  11.3km/h 14.0mph /  22.5km/h 93% 0.00in /  0mm
19:04 33.1 °F /  0.6 °C 31.6 °F /  -0.2 °C 29.72in /  1006.3hPa WSW 6.0mph /  9.7km/h 13.0mph /  20.9km/h 94% 0.00in /  0mm
19:09 33.3 °F /  0.7 °C 31.8 °F /  -0.1 °C 29.72in /  1006.3hPa WSW 5.0mph /  8km/h 9.0mph /  14.5km/h 94% 0.00in /  0mm
19:14 33.4 °F /  0.8 °C 31.9 °F /  -0.1 °C 29.71in /  1006hPa WSW 6.0mph /  9.7km/h 11.0mph /  17.7km/h 94% 0.00in /  0mm
19:19 33.5 °F /  0.8 °C 32.0 °F /  0 °C 29.71in /  1006hPa WSW 6.0mph /  9.7km/h 11.0mph /  17.7km/h 94% 0.00in /  0mm
19:24 33.5 °F /  0.8 °C 32.0 °F /  0 °C 29.71in /  1006hPa WSW 6.0mph /  9.7km/h 11.0mph /  17.7km/h 94% 0.00in /  0mm
19:29 33.7 °F /  0.9 °C 32.2 °F /  0.1 °C 29.71in /  1006hPa West 5.0mph /  8km/h 9.0mph /  14.5km/h 94% 0.00in /  0mm
19:34 33.7 °F /  0.9 °C 32.2 °F /  0.1 °C 29.71in /  1006hPa WSW 2.0mph /  3.2km/h 8.0mph /  12.9km/h 94% 0.00in /  0mm
19:39 33.7 °F /  0.9 °C 32.2 °F /  0.1 °C 29.70in /  1005.6hPa WSW 3.0mph /  4.8km/h 10.0mph /  16.1km/h 94% 0.00in /  0mm
19:44 33.8 °F /  1 °C 32.3 °F /  0.2 °C 29.71in /  1006hPa WSW 5.0mph /  8km/h 8.0mph /  12.9km/h 94% 0.00in /  0mm
19:49 33.8 °F /  1 °C 32.3 °F /  0.2 °C 29.71in /  1006hPa West 6.0mph /  9.7km/h 10.0mph /  16.1km/h 94% 0.00in /  0mm
19:54 33.9 °F /  1.1 °C 32.4 °F /  0.2 °C 29.71in /  1006hPa WSW 6.0mph /  9.7km/h 10.0mph /  16.1km/h 94% 0.00in /  0mm
19:59 34.0 °F /  1.1 °C 32.5 °F /  0.3 °C 29.71in /  1006hPa WSW 6.0mph /  9.7km/h 12.0mph /  19.3km/h 94% 0.00in /  0mm
20:04 34.1 °F /  1.2 °C 32.6 °F /  0.3 °C 29.71in /  1006hPa WSW 6.0mph /  9.7km/h 12.0mph /  19.3km/h 94% 0.00in /  0mm
20:09 34.2 °F /  1.2 °C 32.7 °F /  0.4 °C 29.71in /  1006hPa WSW 6.0mph /  9.7km/h 14.0mph /  22.5km/h 94% 0.00in /  0mm
20:15 34.3 °F /  1.3 °C 32.8 °F /  0.4 °C 29.71in /  1006hPa WSW 7.0mph /  11.3km/h 16.0mph /  25.7km/h 94% 0.00in /  0mm
20:19 34.4 °F /  1.3 °C 32.9 °F /  0.5 °C 29.72in /  1006.3hPa WSW 8.0mph /  12.9km/h 19.0mph /  30.6km/h 94% 0.01in /  0.25mm
20:24 34.4 °F /  1.3 °C 32.6 °F /  0.3 °C 29.72in /  1006.3hPa WSW 6.0mph /  9.7km/h 18.0mph /  29km/h 93% 0.01in /  0.25mm
20:29 34.5 °F /  1.4 °C 32.7 °F /  0.4 °C 29.72in /  1006.3hPa SW 3.0mph /  4.8km/h 19.0mph /  30.6km/h 93% 0.02in /  0.51mm
20:34 34.6 °F /  1.4 °C 32.8 °F /  0.4 °C 29.72in /  1006.3hPa SW 5.0mph /  8km/h 15.0mph /  24.1km/h 93% 0.02in /  0.51mm
20:39 34.6 °F /  1.4 °C 32.5 °F /  0.3 °C 29.73in /  1006.7hPa West 12.0mph /  19.3km/h 26.0mph /  41.8km/h 92% 0.02in /  0.51mm
20:44 34.6 °F /  1.4 °C 32.2 °F /  0.1 °C 29.73in /  1006.7hPa West 10.0mph /  16.1km/h 18.0mph /  29km/h 91% 0.03in /  0.76mm
20:49 34.4 °F /  1.3 °C 32.0 °F /  0 °C 29.73in /  1006.7hPa NW 8.0mph /  12.9km/h 20.0mph /  32.2km/h 91% 0.03in /  0.76mm
20:54 34.4 °F /  1.3 °C 31.8 °F /  -0.1 °C 29.74in /  1007hPa NW 11.0mph /  17.7km/h 20.0mph /  32.2km/h 90% 0.03in /  0.76mm
20:59 34.3 °F /  1.3 °C 31.4 °F /  -0.3 °C 29.75in /  1007.3hPa WNW 12.0mph /  19.3km/h 23.0mph /  37km/h 89% 0.03in /  0.76mm
21:04 34.3 °F /  1.3 °C 31.1 °F /  -0.5 °C 29.75in /  1007.3hPa WNW 12.0mph /  19.3km/h 23.0mph /  37km/h 88% 0.03in /  0.76mm
21:09 34.3 °F /  1.3 °C 31.1 °F /  -0.5 °C 29.75in /  1007.3hPa WNW 10.0mph /  16.1km/h 20.0mph /  32.2km/h 88% 0.03in /  0.76mm
21:14 34.3 °F /  1.3 °C 30.8 °F /  -0.7 °C 29.76in /  1007.7hPa WNW 9.0mph /  14.5km/h 19.0mph /  30.6km/h 87% 0.04in /  1.02mm
21:19 34.3 °F /  1.3 °C 30.8 °F /  -0.7 °C 29.76in /  1007.7hPa WNW 9.0mph /  14.5km/h 18.0mph /  29km/h 87% 0.03in /  0.76mm
21:24 34.1 °F /  1.2 °C 30.1 °F /  -1.1 °C 29.76in /  1007.7hPa WNW 10.0mph /  16.1km/h 21.0mph /  33.8km/h 85% 0.03in /  0.76mm
21:29 34.1 °F /  1.2 °C 30.1 °F /  -1.1 °C 29.77in /  1008hPa WNW 9.0mph /  14.5km/h 21.0mph /  33.8km/h 85% 0.02in /  0.51mm
21:34 34.0 °F /  1.1 °C 30.0 °F /  -1.1 °C 29.77in /  1008hPa WNW 9.0mph /  14.5km/h 21.0mph /  33.8km/h 85% 0.02in /  0.51mm
21:39 33.8 °F /  1 °C 29.2 °F /  -1.6 °C 29.78in /  1008.4hPa WNW 11.0mph /  17.7km/h 24.0mph /  38.6km/h 83% 0.02in /  0.51mm
21:44 33.6 °F /  0.9 °C 28.7 °F /  -1.8 °C 29.79in /  1008.7hPa WNW 11.0mph /  17.7km/h 24.0mph /  38.6km/h 82% 0.01in /  0.25mm
21:49 33.5 °F /  0.8 °C 28.6 °F /  -1.9 °C 29.79in /  1008.7hPa WNW 12.0mph /  19.3km/h 21.0mph /  33.8km/h 82% 0.01in /  0.25mm
21:54 33.4 °F /  0.8 °C 28.5 °F /  -1.9 °C 29.79in /  1008.7hPa WNW 8.0mph /  12.9km/h 27.0mph /  43.5km/h 82% 0.01in /  0.25mm
21:59 33.2 °F /  0.7 °C 27.7 °F /  -2.4 °C 29.80in /  1009hPa WNW 12.0mph /  19.3km/h 29.0mph /  46.7km/h 80% 0.01in /  0.25mm
22:04 33.1 °F /  0.6 °C 27.6 °F /  -2.4 °C 29.80in /  1009hPa NW 10.0mph /  16.1km/h 26.0mph /  41.8km/h 80% 0.01in /  0.25mm
22:09 32.9 °F /  0.5 °C 27.4 °F /  -2.6 °C 29.80in /  1009hPa WNW 12.0mph /  19.3km/h 26.0mph /  41.8km/h 80% 0.01in /  0.25mm
22:14 32.8 °F /  0.4 °C 27.0 °F /  -2.8 °C 29.81in /  1009.4hPa WNW 13.0mph /  20.9km/h 23.0mph /  37km/h 79% 0.00in /  0mm
22:19 32.6 °F /  0.3 °C 26.8 °F /  -2.9 °C 29.81in /  1009.4hPa WNW 13.0mph /  20.9km/h 28.0mph /  45.1km/h 79% 0.00in /  0mm
22:24 32.5 °F /  0.3 °C 26.4 °F /  -3.1 °C 29.81in /  1009.4hPa WNW 14.0mph /  22.5km/h 28.0mph /  45.1km/h 78% 0.00in /  0mm
22:29 32.3 °F /  0.2 °C 26.5 °F /  -3.1 °C 29.82in /  1009.7hPa West 8.0mph /  12.9km/h 20.0mph /  32.2km/h 79% 0.00in /  0mm
22:34 32.1 °F /  0.1 °C 26.3 °F /  -3.2 °C 29.82in /  1009.7hPa North 9.0mph /  14.5km/h 24.0mph /  38.6km/h 79% 0.00in /  0mm
22:39 31.9 °F /  -0.1 °C 26.1 °F /  -3.3 °C 29.82in /  1009.7hPa WNW 11.0mph /  17.7km/h 24.0mph /  38.6km/h 79% 0.00in /  0mm
22:44 31.7 °F /  -0.2 °C 25.9 °F /  -3.4 °C 29.83in /  1010hPa WNW 12.0mph /  19.3km/h 24.0mph /  38.6km/h 79% 0.00in /  0mm
22:49 31.6 °F /  -0.2 °C 25.8 °F /  -3.4 °C 29.83in /  1010hPa WNW 13.0mph /  20.9km/h 25.0mph /  40.2km/h 79% 0.00in /  0mm
22:54 31.4 °F /  -0.3 °C 25.3 °F /  -3.7 °C 29.84in /  1010.4hPa WNW 13.0mph /  20.9km/h 25.0mph /  40.2km/h 78% 0.00in /  0mm
22:59 31.3 °F /  -0.4 °C 25.2 °F /  -3.8 °C 29.84in /  1010.4hPa WNW 10.0mph /  16.1km/h 28.0mph /  45.1km/h 78% 0.00in /  0mm
23:04 31.2 °F /  -0.4 °C 25.1 °F /  -3.8 °C 29.84in /  1010.4hPa West 9.0mph /  14.5km/h 22.0mph /  35.4km/h 78% 0.00in /  0mm
23:09 31.1 °F /  -0.5 °C 25.0 °F /  -3.9 °C 29.84in /  1010.4hPa NW 13.0mph /  20.9km/h 24.0mph /  38.6km/h 78% 0.00in /  0mm
23:14 31.0 °F /  -0.6 °C 24.9 °F /  -3.9 °C 29.85in /  1010.7hPa WNW 12.0mph /  19.3km/h 24.0mph /  38.6km/h 78% 0.00in /  0mm
23:19 30.8 °F /  -0.7 °C 24.4 °F /  -4.2 °C 29.85in /  1010.7hPa WNW 11.0mph /  17.7km/h 23.0mph /  37km/h 77% 0.00in /  0mm
23:24 30.8 °F /  -0.7 °C 24.4 °F /  -4.2 °C 29.85in /  1010.7hPa WNW 18.0mph /  29km/h 23.0mph /  37km/h 77% 0.00in /  0mm
23:29 30.6 °F /  -0.8 °C 23.9 °F /  -4.5 °C 29.86in /  1011.1hPa West 7.0mph /  11.3km/h 18.0mph /  29km/h 76% 0.00in /  0mm
23:34 30.5 °F /  -0.8 °C 23.2 °F /  -4.9 °C 29.86in /  1011.1hPa WNW 13.0mph /  20.9km/h 25.0mph /  40.2km/h 74% 0.00in /  0mm
23:39 30.5 °F /  -0.8 °C 23.5 °F /  -4.7 °C 29.86in /  1011.1hPa NW 7.0mph /  11.3km/h 22.0mph /  35.4km/h 75% 0.00in /  0mm
23:44 30.4 °F /  -0.9 °C 23.4 °F /  -4.8 °C 29.86in /  1011.1hPa West 10.0mph /  16.1km/h 19.0mph /  30.6km/h 75% 0.00in /  0mm
23:49 30.4 °F /  -0.9 °C 23.4 °F /  -4.8 °C 29.87in /  1011.4hPa West 10.0mph /  16.1km/h 22.0mph /  35.4km/h 75% 0.00in /  0mm
23:54 30.3 °F /  -0.9 °C 23.0 °F /  -5 °C 29.87in /  1011.4hPa West 10.0mph /  16.1km/h 22.0mph /  35.4km/h 74% 0.00in /  0mm
23:59 30.1 °F /  -1.1 °C 23.1 °F /  -4.9 °C 29.88in /  1011.7hPa West 10.0mph /  16.1km/h 21.0mph /  33.8km/h 75% 0.00in /  0mm
Buffalo, New York, USA
Compliments of Weather Underground - 2.5 mb